< < Back
Terminal Aerodrome Forecast


Current Version              Previous Versions:   1  2  3  4  5  6  7  8  9  

Terminal Aerodrome Forecast

221
FTUS42 KILM 221700
TAFFLO
TAF
KFLO 221724Z 2218/2318 31007KT P6SM SCT060
     FM222200 22006KT P6SM VCTS FEW040CB BKN060
      TEMPO 2300/2304 3SM TSRA BKN030CB
     FM231000 32006KT P6SM BKN015=

Latest METAR

857
SAUS70 KWBC 221900 RRD
MTRFLO
METAR KFLO 221853Z 26007KT 10SM CLR 36/19 A2998 RMK AO2 SLP148
T03560194


USA.gov is the U.S. government's official web portal to all federal, state and local government web resources and services.